createdAt,value
2019-02-16T00:00:19.865Z,87.03
2019-02-16T00:05:18.979Z,88.45
2019-02-16T00:07:48.055Z,90.78
2019-02-16T00:10:17.133Z,89.26
2019-02-16T00:12:46.229Z,89.22
2019-02-16T00:15:16.228Z,89.81
2019-02-16T00:17:45.735Z,92.83
2019-02-16T00:20:14.830Z,93.11
2019-02-16T00:22:43.892Z,92.60
2019-02-16T00:25:14.646Z,92.20
2019-02-16T00:27:43.783Z,91.44
2019-02-16T00:30:23.191Z,89.71
2019-02-16T00:32:52.281Z,91.50
2019-02-16T00:35:21.362Z,93.54
2019-02-16T00:37:51.102Z,91.50
2019-02-16T00:40:20.213Z,89.80
2019-02-16T00:42:49.268Z,92.17
2019-02-16T00:45:18.331Z,93.14
2019-02-16T00:47:47.412Z,91.24
2019-02-16T00:50:18.249Z,94.97
2019-02-16T00:52:47.367Z,95.76
2019-02-16T00:55:16.425Z,97.21
2019-02-16T00:57:46.176Z,96.42
2019-02-16T01:00:20.181Z,96.68
2019-02-16T01:02:49.244Z,96.78
2019-02-16T01:05:18.300Z,93.75
2019-02-16T01:07:47.357Z,94.06
2019-02-16T01:13:00.405Z,93.43
2019-02-16T01:15:29.618Z,90.32
2019-02-16T01:17:58.669Z,92.54
2019-02-16T01:20:28.766Z,91.48
2019-02-16T01:22:59.246Z,88.42
2019-02-16T01:25:28.324Z,91.73
2019-02-16T01:27:57.411Z,94.06
2019-02-16T01:30:27.501Z,90.51
2019-02-16T01:32:59.355Z,93.47
2019-02-16T01:35:28.461Z,94.15
2019-02-16T01:37:57.507Z,90.30
2019-02-16T01:40:27.578Z,92.93
2019-02-16T01:42:57.654Z,94.89
2019-02-16T01:45:26.751Z,95.77
2019-02-16T01:47:55.813Z,96.41
2019-02-16T01:50:25.819Z,96.88
2019-02-16T01:52:54.870Z,96.78
2019-02-16T01:55:24.433Z,97.13
2019-02-16T01:57:57.537Z,94.90
2019-02-16T02:00:26.584Z,92.70
2019-02-16T02:02:59.272Z,92.50
2019-02-16T02:05:28.331Z,92.09
2019-02-16T02:07:59.402Z,95.09
2019-02-16T02:10:28.448Z,94.14
2019-02-16T02:15:34.037Z,94.91
2019-02-16T02:20:41.026Z,94.64
2019-02-16T02:23:18.082Z,93.10
2019-02-16T02:25:47.148Z,93.62
2019-02-16T02:28:18.724Z,96.83
2019-02-16T02:30:47.813Z,98.40
2019-02-16T02:33:16.867Z,97.94
2019-02-16T02:35:45.949Z,96.88
2019-02-16T02:40:59.056Z,97.19
2019-02-16T02:43:31.980Z,98.66
2019-02-16T02:46:15.878Z,97.88
2019-02-16T02:48:44.926Z,97.81
2019-02-16T02:53:57.206Z,99.65
2019-02-16T02:59:01.982Z,98.56
2019-02-16T03:01:38.146Z,97.17
2019-02-16T03:04:07.353Z,96.71
2019-02-16T03:06:36.876Z,97.34
2019-02-16T03:09:05.942Z,97.73
2019-02-16T03:14:09.651Z,97.94
2019-02-16T03:16:38.749Z,98.53
2019-02-16T03:19:07.792Z,98.41
2019-02-16T03:21:36.847Z,98.59
2019-02-16T03:24:05.891Z,99.65
2019-02-16T03:26:40.210Z,99.87
2019-02-16T03:29:16.449Z,99.38
2019-02-16T03:34:49.177Z,99.40
2019-02-16T03:37:42.731Z,99.41
2019-02-16T03:40:14.364Z,100.00
2019-02-16T03:42:43.498Z,100.00
2019-02-16T03:45:15.684Z,99.57
2019-02-16T03:47:45.001Z,99.21
2019-02-16T03:50:14.058Z,98.76
2019-02-16T03:52:44.399Z,98.66
2019-02-16T03:57:53.416Z,97.99
2019-02-16T04:00:22.507Z,98.20
2019-02-16T04:02:51.569Z,98.19
2019-02-16T04:05:23.243Z,98.25
2019-02-16T04:07:52.322Z,98.42
2019-02-16T04:10:21.368Z,98.00
2019-02-16T04:12:51.078Z,98.03
2019-02-16T04:15:20.175Z,97.70
2019-02-16T04:17:49.243Z,97.06
2019-02-16T04:20:18.321Z,96.04
2019-02-16T04:22:47.414Z,95.96
2019-02-16T04:25:17.467Z,95.75
2019-02-16T04:27:46.585Z,95.96
2019-02-16T04:30:15.638Z,96.08
2019-02-16T04:32:44.696Z,96.26
2019-02-16T04:35:15.743Z,95.93
2019-02-16T04:37:45.484Z,95.74
2019-02-16T04:40:14.574Z,95.39
2019-02-16T04:42:43.622Z,95.19
2019-02-16T04:45:14.361Z,94.94
2019-02-16T04:47:43.431Z,94.18
2019-02-16T04:50:13.584Z,94.45
2019-02-16T04:52:42.613Z,94.91
2019-02-16T04:57:47.370Z,94.97
2019-02-16T05:00:16.460Z,95.60
2019-02-16T05:02:45.525Z,95.31
2019-02-16T05:05:17.719Z,95.53
2019-02-16T05:07:46.772Z,95.66
2019-02-16T05:10:16.266Z,95.52
2019-02-16T05:12:46.203Z,94.66
2019-02-16T05:15:15.258Z,94.26
2019-02-16T05:17:44.883Z,93.45
2019-02-16T05:20:13.951Z,93.32
2019-02-16T05:22:44.945Z,92.80
2019-02-16T05:25:12.070Z,93.10
2019-02-16T05:27:41.125Z,93.08
2019-02-16T05:32:47.069Z,93.10
2019-02-16T05:35:22.256Z,93.21
2019-02-16T05:37:51.289Z,92.91
2019-02-16T05:40:21.272Z,92.81
2019-02-16T05:42:51.143Z,92.82
2019-02-16T05:45:20.212Z,92.59
2019-02-16T05:47:49.302Z,92.11
2019-02-16T05:52:55.085Z,92.29
2019-02-16T05:55:27.957Z,92.33
2019-02-16T05:58:09.506Z,92.31
2019-02-16T06:00:48.925Z,92.25
2019-02-16T06:03:33.230Z,92.10
2019-02-16T06:06:09.127Z,92.38
2019-02-16T06:08:38.195Z,92.78
2019-02-16T06:11:08.118Z,93.11
2019-02-16T06:13:38.087Z,92.86
2019-02-16T06:16:07.644Z,93.05
2019-02-16T06:18:36.729Z,93.55
2019-02-16T06:21:06.733Z,93.53
2019-02-16T06:23:35.794Z,93.28
2019-02-16T06:26:04.865Z,93.47
2019-02-16T06:28:35.608Z,92.98
2019-02-16T06:31:04.362Z,93.36
2019-02-16T06:33:34.360Z,93.59
2019-02-16T06:36:05.937Z,92.10
2019-02-16T06:38:35.067Z,92.53
2019-02-16T06:41:18.955Z,93.83
2019-02-16T06:43:48.214Z,93.96
2019-02-16T06:46:26.704Z,93.83
2019-02-16T06:48:57.338Z,93.53
2019-02-16T06:51:28.414Z,93.01
2019-02-16T06:54:00.666Z,92.63
2019-02-16T06:59:07.839Z,91.36
2019-02-16T07:01:38.067Z,93.25
2019-02-16T07:04:07.195Z,93.16
2019-02-16T07:06:47.111Z,92.88
2019-02-16T07:09:16.145Z,93.01
2019-02-16T07:14:36.811Z,91.89
2019-02-16T07:17:07.540Z,91.37
2019-02-16T07:19:36.588Z,91.32
2019-02-16T07:22:05.652Z,91.45
2019-02-16T07:24:34.707Z,91.11
2019-02-16T07:27:04.273Z,90.39
2019-02-16T07:29:37.409Z,90.09
2019-02-16T07:32:06.457Z,88.70
2019-02-16T07:34:35.965Z,87.63
2019-02-16T07:37:06.002Z,86.45
2019-02-16T07:39:36.968Z,86.00
2019-02-16T07:42:06.917Z,85.02
2019-02-16T07:47:36.433Z,83.44
2019-02-16T07:50:23.262Z,83.25
2019-02-16T07:52:55.619Z,83.14
2019-02-16T07:55:24.671Z,82.82
2019-02-16T07:57:55.988Z,82.33
2019-02-16T08:00:33.670Z,80.76
2019-02-16T08:03:03.128Z,80.28
2019-02-16T08:05:43.165Z,80.20
2019-02-16T08:08:12.636Z,79.35
2019-02-16T08:10:47.089Z,79.73
2019-02-16T08:13:19.049Z,78.83
2019-02-16T08:15:48.099Z,78.03
2019-02-16T08:20:52.812Z,77.00
2019-02-16T08:29:15.158Z,74.51
2019-02-16T08:31:56.696Z,75.10
2019-02-16T08:34:32.363Z,73.10
2019-02-16T08:40:01.844Z,69.20
2019-02-16T08:42:35.081Z,67.59
2019-02-16T08:45:04.876Z,69.07
2019-02-16T08:53:01.756Z,68.37
2019-02-16T08:58:08.099Z,66.20
2019-02-16T09:03:34.416Z,64.51
2019-02-16T09:06:05.077Z,59.94
2019-02-16T09:11:30.459Z,57.19
2019-02-16T09:14:03.443Z,49.48
2019-02-16T09:16:36.202Z,47.93
2019-02-16T09:19:06.548Z,38.99
2019-02-16T09:21:36.479Z,38.66
2019-02-16T09:24:08.025Z,36.32
2019-02-16T09:29:16.661Z,39.89
2019-02-16T09:31:52.625Z,31.39
2019-02-16T09:37:00.024Z,30.54
2019-02-16T09:39:37.124Z,34.80
2019-02-16T09:45:16.272Z,32.08
2019-02-16T09:47:56.489Z,30.18
2019-02-16T09:53:45.743Z,29.68
2019-02-16T09:56:28.481Z,26.18
2019-02-16T09:59:07.686Z,27.33
2019-02-16T10:01:52.909Z,29.38
2019-02-16T10:07:11.782Z,22.13
2019-02-16T10:12:55.177Z,24.96
2019-02-16T10:15:30.626Z,21.82
2019-02-16T10:18:10.521Z,23.69
2019-02-16T10:20:46.135Z,23.36
2019-02-16T10:23:21.147Z,23.67
2019-02-16T10:26:09.871Z,23.10
2019-02-16T10:28:57.410Z,21.32
2019-02-16T10:31:36.118Z,19.21
2019-02-16T10:34:10.350Z,20.70
2019-02-16T10:39:50.541Z,20.18
2019-02-16T10:42:25.066Z,18.01
2019-02-16T10:44:58.433Z,18.40
2019-02-16T10:47:37.621Z,14.81
2019-02-16T10:50:12.595Z,18.88
2019-02-16T10:52:42.921Z,15.88
2019-02-16T10:55:18.260Z,16.52
2019-02-16T10:57:48.199Z,16.83
2019-02-16T11:00:35.315Z,20.25
2019-02-16T11:05:40.208Z,17.08
2019-02-16T11:08:21.150Z,18.46
2019-02-16T11:10:52.980Z,18.54
2019-02-16T11:13:25.905Z,18.94
2019-02-16T11:15:55.866Z,14.96
2019-02-16T11:18:30.501Z,15.02
2019-02-16T11:24:19.051Z,14.77
2019-02-16T11:26:58.290Z,14.11
2019-02-16T11:29:27.372Z,14.47
2019-02-16T11:32:01.831Z,14.44
2019-02-16T11:34:33.893Z,13.44
2019-02-16T11:37:08.662Z,12.91
2019-02-16T11:42:19.240Z,17.06
2019-02-16T11:50:23.323Z,13.65
2019-02-16T11:55:55.706Z,12.93
2019-02-16T11:58:33.388Z,12.24
2019-02-16T12:01:04.830Z,13.62
2019-02-16T12:03:33.899Z,15.55
2019-02-16T12:06:05.827Z,12.89
2019-02-16T12:16:51.657Z,13.54
2019-02-16T12:19:32.328Z,12.29
2019-02-16T12:22:04.192Z,12.08
2019-02-16T12:24:33.476Z,13.13
2019-02-16T12:27:02.570Z,13.80
2019-02-16T12:29:41.115Z,14.71
2019-02-16T12:32:10.830Z,14.75
2019-02-16T12:34:57.744Z,14.56
2019-02-16T12:37:32.785Z,16.66
2019-02-16T12:40:01.881Z,15.77
2019-02-16T12:48:18.734Z,15.07
2019-02-16T12:50:52.743Z,18.30
2019-02-16T12:56:21.945Z,17.63
2019-02-16T13:01:56.360Z,16.95
2019-02-16T13:09:41.367Z,16.55
2019-02-16T13:12:13.839Z,17.35
2019-02-16T13:14:44.655Z,14.83
2019-02-16T13:17:18.293Z,14.11
2019-02-16T13:22:24.464Z,13.70
2019-02-16T13:27:37.286Z,13.44
2019-02-16T13:30:07.887Z,12.78
2019-02-16T13:32:39.837Z,13.82
2019-02-16T13:40:34.554Z,13.36
2019-02-16T13:48:17.416Z,13.21
2019-02-16T13:50:47.072Z,12.84
2019-02-16T13:53:21.705Z,13.27
2019-02-16T13:56:01.953Z,13.44
2019-02-16T13:58:30.983Z,13.70
2019-02-16T14:01:02.723Z,13.35
2019-02-16T14:03:36.894Z,12.98
2019-02-16T14:09:02.988Z,12.61
2019-02-16T14:11:37.623Z,13.21
2019-02-16T14:14:12.307Z,14.57
2019-02-16T14:16:54.005Z,16.54
2019-02-16T14:19:23.125Z,13.56
2019-02-16T14:21:52.179Z,12.99
2019-02-16T14:24:21.221Z,13.99
2019-02-16T14:26:50.308Z,13.32
2019-02-16T14:29:19.815Z,12.79
2019-02-16T14:34:24.671Z,14.37
2019-02-16T14:36:54.669Z,14.49
2019-02-16T14:39:23.710Z,13.86
2019-02-16T14:44:28.623Z,13.38
2019-02-16T14:46:57.676Z,15.97
2019-02-16T14:49:27.160Z,15.00
2019-02-16T14:51:56.236Z,14.66
2019-02-16T14:54:29.551Z,15.13
2019-02-16T14:57:02.256Z,15.06
2019-02-16T14:59:37.536Z,14.33
2019-02-16T15:02:15.614Z,15.76
2019-02-16T15:04:49.644Z,15.14
2019-02-16T15:07:22.734Z,15.64
2019-02-16T15:09:56.693Z,14.76
2019-02-16T15:12:29.798Z,15.42
2019-02-16T15:15:05.020Z,17.34
2019-02-16T15:17:38.165Z,17.06
2019-02-16T15:22:43.209Z,18.31
2019-02-16T15:25:12.288Z,18.63
2019-02-16T15:27:44.835Z,17.94
2019-02-16T15:30:14.862Z,17.43
2019-02-16T15:32:43.908Z,18.84
2019-02-16T15:37:48.759Z,17.93
2019-02-16T15:40:17.823Z,18.00
2019-02-16T15:42:46.913Z,18.04
2019-02-16T15:45:15.963Z,20.37
2019-02-16T15:50:20.790Z,21.30
2019-02-16T15:52:49.873Z,24.61
2019-02-16T15:55:18.891Z,25.70
2019-02-16T15:57:47.974Z,27.44
2019-02-16T16:00:20.224Z,33.62
2019-02-16T16:02:49.311Z,31.43
2019-02-16T16:10:36.024Z,33.92
2019-02-16T16:15:44.965Z,36.46
2019-02-16T16:29:11.741Z,42.74
2019-02-16T16:31:45.055Z,39.43
2019-02-16T16:37:07.888Z,47.84
2019-02-16T16:39:49.249Z,43.72
2019-02-16T16:47:32.076Z,43.81
2019-02-16T16:50:03.118Z,42.57
2019-02-16T16:52:37.229Z,50.12
2019-02-16T16:55:10.116Z,48.73
2019-02-16T16:57:44.575Z,52.12
2019-02-16T17:00:33.479Z,45.76
2019-02-16T17:03:04.740Z,52.00
2019-02-16T17:05:49.223Z,51.35
2019-02-16T17:13:58.672Z,45.35
2019-02-16T17:16:33.163Z,55.47
2019-02-16T17:19:13.726Z,53.58
2019-02-16T17:21:43.007Z,56.47
2019-02-16T17:24:12.270Z,57.30
2019-02-16T17:26:44.253Z,57.78
2019-02-16T17:29:19.676Z,57.96
2019-02-16T17:31:59.878Z,53.20
2019-02-16T17:34:37.091Z,54.13
2019-02-16T17:40:07.678Z,60.85
2019-02-16T17:42:40.099Z,59.02
2019-02-16T17:45:12.978Z,54.57
2019-02-16T17:47:51.504Z,58.42
2019-02-16T17:53:02.515Z,51.42
2019-02-16T17:55:38.116Z,55.20
2019-02-16T18:03:44.215Z,54.77
2019-02-16T18:06:19.994Z,55.11
2019-02-16T18:11:50.537Z,58.55
2019-02-16T18:14:23.599Z,63.81
2019-02-16T18:19:55.283Z,60.44
2019-02-16T18:22:29.180Z,59.73
2019-02-16T18:25:09.023Z,62.35
2019-02-16T18:30:42.845Z,61.70
2019-02-16T18:35:52.311Z,58.23
2019-02-16T18:38:28.674Z,59.64
2019-02-16T18:41:01.550Z,59.35
2019-02-16T18:43:48.975Z,58.90
2019-02-16T18:46:18.850Z,56.87
2019-02-16T18:55:10.190Z,56.02
2019-02-16T18:57:31.168Z,58.79
2019-02-16T19:00:02.748Z,58.91
2019-02-16T19:05:10.471Z,55.65
2019-02-16T19:07:49.410Z,60.05
2019-02-16T19:13:38.346Z,63.97
2019-02-16T19:18:45.549Z,66.36
2019-02-16T19:21:19.935Z,64.64
2019-02-16T19:23:51.120Z,61.05
2019-02-16T19:26:20.175Z,65.86
2019-02-16T19:28:50.757Z,64.14
2019-02-16T19:31:27.102Z,64.85
2019-02-16T19:33:58.384Z,63.05
2019-02-16T19:36:29.828Z,57.80
2019-02-16T19:41:37.508Z,61.29
2019-02-16T19:46:43.275Z,65.07
2019-02-16T19:51:49.356Z,60.33
2019-02-16T19:56:54.091Z,64.69
2019-02-16T19:59:45.123Z,66.01
2019-02-16T20:05:15.411Z,66.10
2019-02-16T20:07:47.540Z,66.47
2019-02-16T20:10:36.453Z,67.56
2019-02-16T20:15:44.423Z,69.19
2019-02-16T20:18:18.264Z,64.90
2019-02-16T20:20:53.014Z,71.25
2019-02-16T20:23:22.961Z,72.70
2019-02-16T20:25:54.991Z,71.98
2019-02-16T20:31:30.593Z,72.77
2019-02-16T20:36:37.893Z,69.44
2019-02-16T20:39:12.246Z,69.06
2019-02-16T20:44:37.880Z,66.49
2019-02-16T20:47:13.919Z,65.39
2019-02-16T20:49:55.762Z,65.72
2019-02-16T20:52:34.997Z,64.99
2019-02-16T20:55:04.057Z,64.90
2019-02-16T20:57:47.410Z,65.07
2019-02-16T21:00:16.831Z,66.05
2019-02-16T21:05:38.313Z,66.32
2019-02-16T21:11:18.600Z,66.81
2019-02-16T21:13:47.689Z,67.48
2019-02-16T21:16:18.025Z,65.58
2019-02-16T21:22:03.015Z,67.09
2019-02-16T21:24:33.375Z,65.38
2019-02-16T21:27:08.525Z,64.99
2019-02-16T21:29:53.289Z,64.62
2019-02-16T21:32:26.523Z,65.03
2019-02-16T21:37:58.974Z,64.25
2019-02-16T21:40:32.897Z,63.03
2019-02-16T21:43:07.400Z,63.50
2019-02-16T21:45:38.083Z,63.63
2019-02-16T21:50:49.829Z,63.15
2019-02-16T21:53:33.699Z,62.70
2019-02-16T21:56:08.160Z,63.09
2019-02-16T21:58:53.594Z,62.82
2019-02-16T22:01:25.164Z,62.83
2019-02-16T22:06:35.368Z,62.31
2019-02-16T22:09:05.214Z,63.64
2019-02-16T22:14:35.622Z,62.49
2019-02-16T22:17:04.654Z,64.56
2019-02-16T22:19:33.729Z,62.29
2019-02-16T22:24:42.563Z,65.17
2019-02-16T22:27:11.639Z,64.57
2019-02-16T22:29:40.734Z,64.32
2019-02-16T22:32:09.804Z,63.15
2019-02-16T22:34:38.863Z,63.73
2019-02-16T22:37:11.060Z,64.16
2019-02-16T22:39:40.128Z,62.69
2019-02-16T22:44:47.030Z,61.89
2019-02-16T22:47:16.073Z,62.13
2019-02-16T22:49:45.115Z,61.91
2019-02-16T22:52:14.199Z,61.53
2019-02-16T22:54:43.242Z,62.60
2019-02-16T22:57:25.412Z,61.92
2019-02-16T22:59:54.472Z,64.53
2019-02-16T23:02:24.430Z,64.97
2019-02-16T23:04:53.472Z,64.98
2019-02-16T23:07:22.518Z,64.72
2019-02-16T23:09:52.943Z,64.47
2019-02-16T23:12:22.032Z,63.67
2019-02-16T23:14:52.123Z,63.30
2019-02-16T23:17:21.428Z,63.69
2019-02-16T23:19:50.452Z,63.90
2019-02-16T23:24:55.211Z,64.80
2019-02-16T23:30:00.347Z,64.79
2019-02-16T23:32:29.235Z,66.74
2019-02-16T23:34:58.281Z,66.86
2019-02-16T23:37:27.320Z,68.08
2019-02-16T23:39:56.348Z,69.41
2019-02-16T23:42:26.650Z,70.24
2019-02-16T23:47:31.226Z,69.63
2019-02-16T23:52:35.298Z,68.95
2019-02-16T23:57:40.092Z,69.99
